WMT6ED LEBL-LROP
Flight info
| Callsign | WMT6ED |
|---|---|
| Flight time | N/A |
| Altitude | 38000 |
| Route | DIPES DCT TOSNU DCT LAPIT N725 OSPOK DCT NOLVI/N0445F390 DCT ORKUM/N0447F380 DCT ELSAG DCT ALG DCT MINKA DCT POZZO DCT TINIX DCT XOLTA/N0445F390 DCT BUNEX DCT BAJUN DCT NISVA DCT SOMOV DCT SORDU |
| Aircraft | A20N/M-SDE2E3FGHIRWXY/LB1 |
Departure
| Time | 2026-05-05 09:48 |
|---|---|
| Airport | Josep Tarradellas Barcelona-El Prat Airport (LEBL) |
Arrival
| Time | N/A |
|---|---|
| Airport | Bucharest Henri Coandă International Airport (LROP) |
| Time | Latitude | Longitude | Altitude | Speed | Heading |
|---|---|---|---|---|---|
| 2026-05-05 09:28 | 41.30162 | 2.07772 | 9 ft | 0 kts | 352° |
| 2026-05-05 09:36 | 41.30145 | 2.07775 | 17 ft | 3 kts | 352° |
| 2026-05-05 09:36 | 41.30127 | 2.07779 | 17 ft | 3 kts | 352° |
| 2026-05-05 09:36 | 41.30109 | 2.07782 | 17 ft | 3 kts | 2° |
| 2026-05-05 09:36 | 41.30092 | 2.07779 | 18 ft | 3 kts | 14° |
| 2026-05-05 09:37 | 41.30076 | 2.07768 | 18 ft | 3 kts | 53° |
| 2026-05-05 09:37 | 41.30073 | 2.07762 | 22 ft | 0 kts | 57° |
| 2026-05-05 09:38 | 41.30073 | 2.07763 | -10 ft | 0 kts | 59° |
| 2026-05-05 09:38 | 41.30080 | 2.07778 | 18 ft | 3 kts | 60° |
| 2026-05-05 09:38 | 41.30089 | 2.07817 | 19 ft | 5 kts | 75° |
| 2026-05-05 09:39 | 41.30102 | 2.07872 | 19 ft | 7 kts | 70° |
| 2026-05-05 09:39 | 41.30123 | 2.07937 | 19 ft | 8 kts | 65° |
| 2026-05-05 09:39 | 41.30144 | 2.07996 | 18 ft | 7 kts | 64° |
| 2026-05-05 09:39 | 41.30166 | 2.08055 | 18 ft | 8 kts | 65° |
| 2026-05-05 09:40 | 41.30189 | 2.08132 | 18 ft | 10 kts | 79° |
| 2026-05-05 09:40 | 41.30159 | 2.08193 | 21 ft | 7 kts | 154° |
| 2026-05-05 09:40 | 41.30120 | 2.08218 | 23 ft | 5 kts | 155° |
| 2026-05-05 09:40 | 41.30089 | 2.08236 | 26 ft | 5 kts | 156° |
| 2026-05-05 09:41 | 41.30048 | 2.08260 | 25 ft | 8 kts | 156° |
| 2026-05-05 09:41 | 41.29993 | 2.08293 | 25 ft | 10 kts | 156° |
| 2026-05-05 09:41 | 41.29929 | 2.08332 | 26 ft | 11 kts | 155° |
| 2026-05-05 09:41 | 41.29858 | 2.08375 | 27 ft | 12 kts | 156° |
| 2026-05-05 09:42 | 41.29769 | 2.08428 | 22 ft | 16 kts | 156° |
| 2026-05-05 09:42 | 41.29663 | 2.08493 | 20 ft | 17 kts | 155° |
| 2026-05-05 09:42 | 41.29553 | 2.08560 | 18 ft | 18 kts | 156° |
| 2026-05-05 09:42 | 41.29438 | 2.08627 | 16 ft | 17 kts | 155° |
| 2026-05-05 09:43 | 41.29337 | 2.08688 | 19 ft | 15 kts | 155° |
| 2026-05-05 09:43 | 41.29244 | 2.08743 | 18 ft | 14 kts | 156° |
| 2026-05-05 09:43 | 41.29159 | 2.08793 | 21 ft | 12 kts | 156° |
| 2026-05-05 09:43 | 41.29087 | 2.08838 | 20 ft | 11 kts | 155° |
| 2026-05-05 09:44 | 41.29019 | 2.08879 | 19 ft | 11 kts | 155° |
| 2026-05-05 09:44 | 41.28953 | 2.08933 | 19 ft | 11 kts | 124° |
| 2026-05-05 09:44 | 41.28960 | 2.09016 | 22 ft | 8 kts | 66° |
| 2026-05-05 09:44 | 41.28991 | 2.09108 | 23 ft | 16 kts | 65° |
| 2026-05-05 09:45 | 41.29045 | 2.09268 | 20 ft | 19 kts | 65° |
| 2026-05-05 09:45 | 41.29099 | 2.09421 | 22 ft | 17 kts | 65° |
| 2026-05-05 09:45 | 41.29149 | 2.09567 | 21 ft | 18 kts | 65° |
| 2026-05-05 09:45 | 41.29199 | 2.09716 | 22 ft | 17 kts | 66° |
| 2026-05-05 09:46 | 41.29250 | 2.09865 | 20 ft | 18 kts | 66° |
| 2026-05-05 09:46 | 41.29276 | 2.10025 | 19 ft | 17 kts | 108° |
| 2026-05-05 09:46 | 41.29234 | 2.10169 | 17 ft | 16 kts | 96° |
| 2026-05-05 09:46 | 41.29236 | 2.10292 | 16 ft | 11 kts | 153° |
| 2026-05-05 09:47 | 41.29194 | 2.10247 | 17 ft | 8 kts | 243° |
| 2026-05-05 09:47 | 41.29151 | 2.10119 | 16 ft | 38 kts | 246° |
| 2026-05-05 09:47 | 41.28951 | 2.09535 | 21 ft | 101 kts | 245° |
| 2026-05-05 09:47 | 41.28570 | 2.08437 | 60 ft | 151 kts | 248° |
| 2026-05-05 09:48 | 41.28146 | 2.07195 | 757 ft | 145 kts | 246° |
| 2026-05-05 09:48 | 41.27399 | 2.06285 | 1277 ft | 160 kts | 195° |
| 2026-05-05 09:48 | 41.26180 | 2.06183 | 1650 ft | 191 kts | 180° |
| 2026-05-05 09:48 | 41.24759 | 2.06246 | 2000 ft | 218 kts | 180° |
| 2026-05-05 09:49 | 41.23183 | 2.06246 | 2625 ft | 231 kts | 183° |
| 2026-05-05 09:49 | 41.21588 | 2.06169 | 3514 ft | 231 kts | 185° |
| 2026-05-05 09:49 | 41.19983 | 2.06039 | 4503 ft | 229 kts | 186° |
| 2026-05-05 09:49 | 41.18395 | 2.05883 | 5475 ft | 228 kts | 185° |
| 2026-05-05 09:50 | 41.16804 | 2.05767 | 6384 ft | 230 kts | 184° |
| 2026-05-05 09:50 | 41.15192 | 2.05680 | 7174 ft | 233 kts | 184° |
| 2026-05-05 09:50 | 41.13576 | 2.05602 | 7958 ft | 236 kts | 184° |
| 2026-05-05 09:50 | 41.11916 | 2.05527 | 8755 ft | 239 kts | 185° |
| 2026-05-05 09:51 | 41.10245 | 2.05452 | 9570 ft | 241 kts | 185° |
| 2026-05-05 09:51 | 41.08569 | 2.05377 | 10324 ft | 244 kts | 186° |
| 2026-05-05 09:51 | 41.06848 | 2.05299 | 11083 ft | 246 kts | 186° |
| 2026-05-05 09:51 | 41.05148 | 2.05220 | 11832 ft | 248 kts | 186° |
| 2026-05-05 09:52 | 41.03411 | 2.05140 | 12617 ft | 250 kts | 186° |
| 2026-05-05 09:52 | 41.01658 | 2.05089 | 13390 ft | 253 kts | 182° |
| 2026-05-05 09:52 | 40.99918 | 2.05529 | 14075 ft | 264 kts | 161° |
| 2026-05-05 09:52 | 40.98368 | 2.06992 | 14551 ft | 288 kts | 138° |
| 2026-05-05 09:53 | 40.97069 | 2.09176 | 14815 ft | 312 kts | 130° |
| 2026-05-05 09:53 | 40.95814 | 2.11610 | 15070 ft | 333 kts | 129° |
| 2026-05-05 09:53 | 40.94479 | 2.14243 | 15321 ft | 352 kts | 129° |
| 2026-05-05 09:53 | 40.93063 | 2.17000 | 15570 ft | 370 kts | 129° |
| 2026-05-05 09:54 | 40.91567 | 2.19872 | 15817 ft | 387 kts | 130° |
| 2026-05-05 09:54 | 40.90019 | 2.22817 | 16088 ft | 402 kts | 130° |
| 2026-05-05 09:54 | 40.88492 | 2.25981 | 16557 ft | 414 kts | 122° |
| 2026-05-05 09:54 | 40.87551 | 2.29654 | 17111 ft | 430 kts | 103° |
| 2026-05-05 09:55 | 40.87541 | 2.33654 | 17664 ft | 444 kts | 83° |
| 2026-05-05 09:55 | 40.88454 | 2.37554 | 18188 ft | 453 kts | 67° |
| 2026-05-05 09:55 | 40.89862 | 2.41331 | 18651 ft | 459 kts | 63° |
| 2026-05-05 09:55 | 40.91357 | 2.45092 | 19116 ft | 464 kts | 63° |
| 2026-05-05 09:56 | 40.92826 | 2.48872 | 19564 ft | 469 kts | 64° |
| 2026-05-05 09:56 | 40.94283 | 2.52760 | 20016 ft | 474 kts | 65° |
| 2026-05-05 09:56 | 40.95728 | 2.56724 | 20460 ft | 479 kts | 65° |
| 2026-05-05 09:56 | 40.97171 | 2.60750 | 20914 ft | 483 kts | 65° |
| 2026-05-05 09:57 | 40.98589 | 2.64745 | 21352 ft | 487 kts | 66° |
| 2026-05-05 09:57 | 41.00037 | 2.68849 | 21785 ft | 491 kts | 66° |
| 2026-05-05 09:57 | 41.01471 | 2.72929 | 22199 ft | 496 kts | 66° |
| 2026-05-05 09:57 | 41.02930 | 2.77091 | 22632 ft | 500 kts | 66° |
| 2026-05-05 09:58 | 41.04404 | 2.81306 | 23043 ft | 504 kts | 66° |
| 2026-05-05 09:58 | 41.05888 | 2.85557 | 23454 ft | 509 kts | 66° |
| 2026-05-05 09:58 | 41.07362 | 2.89788 | 23829 ft | 512 kts | 66° |
| 2026-05-05 09:58 | 41.08843 | 2.94116 | 24197 ft | 515 kts | 68° |
| 2026-05-05 09:59 | 41.09984 | 2.98635 | 24561 ft | 516 kts | 79° |
| 2026-05-05 09:59 | 41.10494 | 3.03324 | 24930 ft | 513 kts | 91° |
| 2026-05-05 09:59 | 41.10397 | 3.08038 | 25298 ft | 510 kts | 100° |
| 2026-05-05 09:59 | 41.09982 | 3.12716 | 25650 ft | 511 kts | 103° |
| 2026-05-05 10:00 | 41.09505 | 3.17330 | 25994 ft | 513 kts | 103° |
| 2026-05-05 10:00 | 41.09024 | 3.22042 | 26335 ft | 516 kts | 103° |
| 2026-05-05 10:00 | 41.08561 | 3.26785 | 26664 ft | 519 kts | 102° |
| 2026-05-05 10:00 | 41.08113 | 3.31550 | 26975 ft | 522 kts | 102° |
| 2026-05-05 10:01 | 41.07678 | 3.36305 | 27309 ft | 524 kts | 102° |
| 2026-05-05 10:01 | 41.07247 | 3.41106 | 27729 ft | 523 kts | 102° |
| 2026-05-05 10:01 | 41.06818 | 3.45916 | 28142 ft | 523 kts | 102° |
| 2026-05-05 10:01 | 41.06398 | 3.50641 | 28541 ft | 522 kts | 102° |
| 2026-05-05 10:02 | 41.05861 | 3.55404 | 28955 ft | 520 kts | 105° |
| 2026-05-05 10:02 | 41.05169 | 3.60103 | 29359 ft | 518 kts | 108° |
| 2026-05-05 10:02 | 41.04392 | 3.64757 | 29770 ft | 516 kts | 109° |
| 2026-05-05 10:02 | 41.03565 | 3.69402 | 30142 ft | 516 kts | 109° |
| 2026-05-05 10:03 | 41.02728 | 3.73972 | 30448 ft | 516 kts | 110° |
| 2026-05-05 10:03 | 41.01875 | 3.78590 | 30796 ft | 514 kts | 110° |
| 2026-05-05 10:03 | 41.01026 | 3.83194 | 31135 ft | 514 kts | 110° |
| 2026-05-05 10:03 | 41.00180 | 3.87798 | 31470 ft | 513 kts | 110° |
| 2026-05-05 10:04 | 40.99340 | 3.92391 | 31787 ft | 512 kts | 110° |
| 2026-05-05 10:04 | 40.98505 | 3.96971 | 32101 ft | 512 kts | 110° |
| 2026-05-05 10:04 | 40.97682 | 4.01498 | 32409 ft | 511 kts | 110° |
| 2026-05-05 10:04 | 40.96849 | 4.06075 | 32726 ft | 510 kts | 110° |
| 2026-05-05 10:05 | 40.96018 | 4.10638 | 33028 ft | 509 kts | 110° |
| 2026-05-05 10:05 | 40.95186 | 4.15199 | 33320 ft | 508 kts | 110° |
| 2026-05-05 10:05 | 40.94354 | 4.19743 | 33613 ft | 508 kts | 110° |
| 2026-05-05 10:05 | 40.93532 | 4.24228 | 33896 ft | 507 kts | 110° |
| 2026-05-05 10:06 | 40.92698 | 4.28763 | 34145 ft | 506 kts | 110° |
| 2026-05-05 10:06 | 40.91861 | 4.33295 | 34381 ft | 505 kts | 110° |
| 2026-05-05 10:06 | 40.91034 | 4.37765 | 34611 ft | 504 kts | 110° |
| 2026-05-05 10:06 | 40.90191 | 4.42304 | 34838 ft | 504 kts | 110° |
| 2026-05-05 10:07 | 40.89351 | 4.46811 | 35046 ft | 503 kts | 110° |
| 2026-05-05 10:07 | 40.88520 | 4.51270 | 35265 ft | 503 kts | 110° |
| 2026-05-05 10:07 | 40.87687 | 4.55727 | 35473 ft | 502 kts | 110° |
| 2026-05-05 10:07 | 40.86845 | 4.60233 | 35675 ft | 502 kts | 110° |
| 2026-05-05 10:08 | 40.86016 | 4.64718 | 35874 ft | 503 kts | 108° |
| 2026-05-05 10:08 | 40.85451 | 4.69284 | 36043 ft | 507 kts | 103° |
| 2026-05-05 10:08 | 40.85029 | 4.73921 | 36237 ft | 507 kts | 101° |
| 2026-05-05 10:08 | 40.84665 | 4.78508 | 36415 ft | 507 kts | 101° |
| 2026-05-05 10:09 | 40.84304 | 4.83162 | 36596 ft | 507 kts | 101° |
| 2026-05-05 10:09 | 40.83930 | 4.87821 | 36772 ft | 506 kts | 101° |
| 2026-05-05 10:09 | 40.83541 | 4.92380 | 36940 ft | 506 kts | 101° |
| 2026-05-05 10:09 | 40.83129 | 4.96986 | 37104 ft | 505 kts | 102° |
| 2026-05-05 10:10 | 40.82699 | 5.01610 | 37263 ft | 505 kts | 102° |
| 2026-05-05 10:10 | 40.82263 | 5.06213 | 37428 ft | 504 kts | 102° |
| 2026-05-05 10:10 | 40.81819 | 5.10828 | 37578 ft | 504 kts | 102° |
| 2026-05-05 10:10 | 40.81380 | 5.15372 | 37729 ft | 504 kts | 102° |
| 2026-05-05 10:11 | 40.80934 | 5.19971 | 37878 ft | 503 kts | 102° |
| 2026-05-05 10:11 | 40.80485 | 5.24586 | 37973 ft | 505 kts | 102° |
| 2026-05-05 10:11 | 40.79589 | 5.33774 | 37977 ft | 506 kts | 102° |
| 2026-05-05 10:12 | 40.78693 | 5.42942 | 37981 ft | 505 kts | 102° |
| 2026-05-05 10:12 | 40.77783 | 5.52175 | 37984 ft | 505 kts | 102° |
| 2026-05-05 10:13 | 40.76870 | 5.61359 | 37984 ft | 505 kts | 102° |
| 2026-05-05 10:13 | 40.75953 | 5.70504 | 37987 ft | 505 kts | 102° |
| 2026-05-05 10:14 | 40.75022 | 5.79722 | 37987 ft | 505 kts | 102° |
| 2026-05-05 10:14 | 40.74091 | 5.88861 | 37993 ft | 505 kts | 102° |
| 2026-05-05 10:15 | 40.73145 | 5.98072 | 37989 ft | 505 kts | 102° |
| 2026-05-05 10:15 | 40.72197 | 6.07220 | 37987 ft | 505 kts | 102° |
| 2026-05-05 10:16 | 40.71237 | 6.16409 | 37990 ft | 505 kts | 102° |
| 2026-05-05 10:16 | 40.70270 | 6.25595 | 37998 ft | 505 kts | 102° |
| 2026-05-05 10:17 | 40.69299 | 6.34741 | 37995 ft | 505 kts | 102° |
| 2026-05-05 10:17 | 40.68316 | 6.43938 | 38000 ft | 505 kts | 102° |
| 2026-05-05 10:18 | 40.67331 | 6.53072 | 37998 ft | 505 kts | 102° |
| 2026-05-05 10:18 | 40.66342 | 6.62184 | 38003 ft | 504 kts | 102° |
| 2026-05-05 10:19 | 40.65509 | 6.69808 | 37998 ft | 504 kts | 102° |
| 2026-05-05 10:19 | 40.64334 | 6.80464 | 37998 ft | 504 kts | 102° |
| 2026-05-05 10:20 | 40.63491 | 6.88057 | 38006 ft | 503 kts | 102° |
| 2026-05-05 10:20 | 40.62472 | 6.97176 | 38004 ft | 503 kts | 102° |
| 2026-05-05 10:21 | 40.61443 | 7.06316 | 38009 ft | 502 kts | 102° |
| 2026-05-05 10:21 | 40.60419 | 7.15349 | 38007 ft | 502 kts | 102° |
| 2026-05-05 10:22 | 40.59379 | 7.24451 | 38009 ft | 501 kts | 102° |
| 2026-05-05 10:22 | 40.58340 | 7.33478 | 38012 ft | 501 kts | 102° |
| 2026-05-05 10:23 | 40.57289 | 7.42550 | 38018 ft | 501 kts | 102° |
| 2026-05-05 10:23 | 40.56887 | 7.51746 | 38026 ft | 505 kts | 89° |
| 2026-05-05 10:24 | 40.57506 | 7.60902 | 38022 ft | 507 kts | 85° |
| 2026-05-05 10:24 | 40.58374 | 7.70138 | 38021 ft | 507 kts | 84° |
| 2026-05-05 10:25 | 40.59233 | 7.79290 | 38023 ft | 506 kts | 85° |
| 2026-05-05 10:25 | 40.60047 | 7.88494 | 38021 ft | 506 kts | 85° |
| 2026-05-05 10:26 | 40.60828 | 7.97723 | 38018 ft | 505 kts | 85° |
| 2026-05-05 10:26 | 40.61588 | 8.06896 | 38024 ft | 506 kts | 85° |
| 2026-05-05 10:27 | 40.62346 | 8.16114 | 38021 ft | 505 kts | 85° |
| 2026-05-05 10:27 | 40.63465 | 8.25218 | 38020 ft | 506 kts | 72° |
| 2026-05-05 10:28 | 40.65860 | 8.33893 | 38021 ft | 506 kts | 67° |
| 2026-05-05 10:28 | 40.68588 | 8.42448 | 38022 ft | 506 kts | 66° |
| 2026-05-05 10:29 | 40.71347 | 8.50975 | 38024 ft | 505 kts | 66° |
| 2026-05-05 10:29 | 40.74058 | 8.59504 | 38026 ft | 505 kts | 67° |
| 2026-05-05 10:30 | 40.76748 | 8.68102 | 38033 ft | 505 kts | 67° |
| 2026-05-05 10:30 | 40.79405 | 8.76664 | 38026 ft | 504 kts | 67° |
| 2026-05-05 10:31 | 40.82041 | 8.85193 | 38036 ft | 504 kts | 67° |
| 2026-05-05 10:31 | 40.84704 | 8.93798 | 38029 ft | 504 kts | 67° |
| 2026-05-05 10:32 | 40.87345 | 9.02338 | 38029 ft | 504 kts | 67° |
| 2026-05-05 10:32 | 40.89997 | 9.10930 | 38021 ft | 503 kts | 67° |
| 2026-05-05 10:33 | 40.92627 | 9.19485 | 38011 ft | 503 kts | 67° |
| 2026-05-05 10:33 | 40.95260 | 9.28015 | 38006 ft | 502 kts | 66° |
| 2026-05-05 10:34 | 40.98064 | 9.36518 | 38001 ft | 502 kts | 65° |
| 2026-05-05 10:34 | 41.00911 | 9.44897 | 37999 ft | 501 kts | 65° |
| 2026-05-05 10:35 | 41.03776 | 9.53334 | 37999 ft | 501 kts | 65° |
| 2026-05-05 10:35 | 41.06613 | 9.61747 | 38002 ft | 501 kts | 65° |
| 2026-05-05 10:36 | 41.09447 | 9.70207 | 38008 ft | 501 kts | 65° |
| 2026-05-05 10:36 | 41.12260 | 9.78636 | 38017 ft | 501 kts | 65° |
| 2026-05-05 10:37 | 41.15081 | 9.87119 | 38022 ft | 501 kts | 65° |
| 2026-05-05 10:37 | 41.17897 | 9.95608 | 38023 ft | 501 kts | 65° |
| 2026-05-05 10:38 | 41.20688 | 10.04050 | 38018 ft | 501 kts | 65° |
| 2026-05-05 10:38 | 41.23476 | 10.12508 | 38020 ft | 500 kts | 66° |
| 2026-05-05 10:39 | 41.26265 | 10.20994 | 38026 ft | 500 kts | 66° |
| 2026-05-05 10:39 | 41.29035 | 10.29448 | 38024 ft | 500 kts | 66° |
| 2026-05-05 10:40 | 41.31796 | 10.37904 | 38025 ft | 500 kts | 66° |
| 2026-05-05 10:40 | 41.34563 | 10.46403 | 38025 ft | 499 kts | 66° |
| 2026-05-05 10:41 | 41.37330 | 10.54930 | 38027 ft | 499 kts | 66° |
| 2026-05-05 10:41 | 41.40073 | 10.63408 | 38029 ft | 499 kts | 66° |
| 2026-05-05 10:42 | 41.44158 | 10.76085 | 38031 ft | 498 kts | 66° |
| 2026-05-05 10:43 | 41.46891 | 10.84598 | 38032 ft | 498 kts | 66° |
| 2026-05-05 10:43 | 41.49597 | 10.93052 | 38029 ft | 497 kts | 66° |
| 2026-05-05 10:44 | 41.52312 | 11.01565 | 38030 ft | 497 kts | 66° |
| 2026-05-05 10:44 | 41.55003 | 11.10028 | 38032 ft | 496 kts | 66° |
| 2026-05-05 10:45 | 41.57688 | 11.18496 | 38035 ft | 495 kts | 66° |
| 2026-05-05 10:45 | 41.60369 | 11.26983 | 38033 ft | 494 kts | 66° |
| 2026-05-05 10:46 | 41.63018 | 11.35395 | 38037 ft | 493 kts | 66° |
| 2026-05-05 10:46 | 41.65675 | 11.43858 | 38036 ft | 492 kts | 66° |
| 2026-05-05 10:47 | 41.68310 | 11.52281 | 38037 ft | 492 kts | 66° |
| 2026-05-05 10:47 | 41.70961 | 11.60776 | 38039 ft | 492 kts | 66° |
| 2026-05-05 10:48 | 41.73593 | 11.69241 | 38049 ft | 491 kts | 66° |
| 2026-05-05 10:48 | 41.76211 | 11.77684 | 38055 ft | 491 kts | 66° |
| 2026-05-05 10:49 | 41.78811 | 11.86098 | 38060 ft | 491 kts | 66° |
| 2026-05-05 10:49 | 41.81422 | 11.94576 | 38064 ft | 491 kts | 67° |
| 2026-05-05 10:50 | 41.84030 | 12.03072 | 38071 ft | 492 kts | 66° |
| 2026-05-05 10:50 | 41.86497 | 12.11134 | 38074 ft | 492 kts | 67° |
| 2026-05-05 10:51 | 41.89094 | 12.19648 | 38077 ft | 492 kts | 67° |
| 2026-05-05 10:51 | 41.91687 | 12.28174 | 38075 ft | 491 kts | 66° |
| 2026-05-05 10:52 | 41.94256 | 12.36651 | 38100 ft | 491 kts | 66° |
| 2026-05-05 10:52 | 41.96835 | 12.45193 | 38100 ft | 491 kts | 66° |
| 2026-05-05 10:53 | 41.99391 | 12.53682 | 38102 ft | 490 kts | 66° |
| 2026-05-05 10:53 | 42.01930 | 12.62147 | 38131 ft | 490 kts | 66° |
| 2026-05-05 10:54 | 42.04485 | 12.70692 | 38127 ft | 490 kts | 66° |
| 2026-05-05 10:54 | 42.07023 | 12.79209 | 38131 ft | 489 kts | 66° |
| 2026-05-05 10:55 | 42.09541 | 12.87683 | 38120 ft | 489 kts | 66° |
| 2026-05-05 10:55 | 42.12063 | 12.96199 | 38111 ft | 488 kts | 66° |
| 2026-05-05 10:56 | 42.14578 | 13.04720 | 38101 ft | 488 kts | 66° |
| 2026-05-05 10:56 | 42.16930 | 13.13270 | 38101 ft | 489 kts | 72° |
| 2026-05-05 10:57 | 42.18736 | 13.22096 | 38088 ft | 490 kts | 73° |
| 2026-05-05 10:57 | 42.20503 | 13.31007 | 38083 ft | 490 kts | 73° |
| 2026-05-05 10:58 | 42.22331 | 13.39830 | 38078 ft | 490 kts | 72° |
| 2026-05-05 10:58 | 42.24229 | 13.48715 | 38080 ft | 491 kts | 72° |
| 2026-05-05 10:59 | 42.26126 | 13.57536 | 38066 ft | 492 kts | 72° |
| 2026-05-05 10:59 | 42.28034 | 13.66450 | 38056 ft | 494 kts | 72° |
| 2026-05-05 11:00 | 42.29934 | 13.75384 | 38056 ft | 494 kts | 72° |
| 2026-05-05 11:00 | 42.31816 | 13.84291 | 38036 ft | 495 kts | 71° |
| 2026-05-05 11:01 | 42.33705 | 13.93270 | 38043 ft | 495 kts | 72° |
| 2026-05-05 11:01 | 42.35575 | 14.02192 | 38042 ft | 495 kts | 72° |
| 2026-05-05 11:02 | 42.37135 | 14.09664 | 38044 ft | 496 kts | 72° |
| 2026-05-05 11:02 | 42.38996 | 14.18616 | 38054 ft | 496 kts | 72° |
| 2026-05-05 11:03 | 42.40860 | 14.27622 | 38044 ft | 495 kts | 72° |
| 2026-05-05 11:03 | 42.42700 | 14.36547 | 38053 ft | 495 kts | 72° |
| 2026-05-05 11:04 | 42.44547 | 14.45539 | 38041 ft | 495 kts | 72° |
| 2026-05-05 11:04 | 42.46377 | 14.54496 | 38037 ft | 495 kts | 72° |
| 2026-05-05 11:05 | 42.48213 | 14.63525 | 38032 ft | 495 kts | 72° |
| 2026-05-05 11:05 | 42.50034 | 14.72513 | 38030 ft | 495 kts | 72° |
| 2026-05-05 11:06 | 42.51841 | 14.81469 | 38030 ft | 495 kts | 72° |
| 2026-05-05 11:06 | 42.53657 | 14.90514 | 38032 ft | 494 kts | 72° |
| 2026-05-05 11:07 | 42.55448 | 14.99469 | 38032 ft | 494 kts | 72° |
| 2026-05-05 11:07 | 42.57244 | 15.08489 | 38035 ft | 494 kts | 72° |
| 2026-05-05 11:08 | 42.59032 | 15.17510 | 38039 ft | 494 kts | 73° |
| 2026-05-05 11:08 | 42.60802 | 15.26483 | 38041 ft | 494 kts | 73° |
| 2026-05-05 11:09 | 42.62565 | 15.35462 | 38041 ft | 494 kts | 73° |
| 2026-05-05 11:09 | 42.64339 | 15.44534 | 38040 ft | 494 kts | 73° |
| 2026-05-05 11:10 | 42.66086 | 15.53516 | 38053 ft | 494 kts | 73° |
| 2026-05-05 11:10 | 42.67826 | 15.62505 | 38049 ft | 494 kts | 73° |
| 2026-05-05 11:11 | 42.69572 | 15.71563 | 38049 ft | 493 kts | 73° |
| 2026-05-05 11:11 | 42.71190 | 15.80614 | 38047 ft | 493 kts | 76° |
| 2026-05-05 11:12 | 42.72599 | 15.89769 | 38048 ft | 493 kts | 77° |
| 2026-05-05 11:12 | 42.73939 | 15.98880 | 38062 ft | 493 kts | 77° |
| 2026-05-05 11:13 | 42.75279 | 16.07986 | 38061 ft | 492 kts | 77° |
| 2026-05-05 11:13 | 42.76630 | 16.17124 | 38063 ft | 491 kts | 77° |
| 2026-05-05 11:14 | 42.77974 | 16.26212 | 38076 ft | 490 kts | 77° |
| 2026-05-05 11:14 | 42.79320 | 16.35345 | 38063 ft | 489 kts | 77° |
| 2026-05-05 11:15 | 42.80647 | 16.44404 | 38066 ft | 488 kts | 77° |
| 2026-05-05 11:15 | 42.81960 | 16.53425 | 38070 ft | 487 kts | 77° |
| 2026-05-05 11:16 | 42.83271 | 16.62492 | 38077 ft | 487 kts | 77° |
| 2026-05-05 11:16 | 42.84574 | 16.71559 | 38086 ft | 486 kts | 77° |
| 2026-05-05 11:17 | 42.85864 | 16.80583 | 38092 ft | 486 kts | 77° |
| 2026-05-05 11:17 | 42.87142 | 16.89589 | 38079 ft | 485 kts | 77° |
| 2026-05-05 11:18 | 42.88422 | 16.98650 | 38087 ft | 485 kts | 77° |
| 2026-05-05 11:18 | 42.89688 | 17.07665 | 38090 ft | 485 kts | 77° |
| 2026-05-05 11:19 | 42.90946 | 17.16671 | 38090 ft | 485 kts | 77° |
| 2026-05-05 11:19 | 42.92204 | 17.25740 | 38098 ft | 485 kts | 77° |
| 2026-05-05 11:20 | 42.93451 | 17.34782 | 38100 ft | 484 kts | 78° |
| 2026-05-05 11:20 | 42.94687 | 17.43790 | 38102 ft | 484 kts | 78° |
| 2026-05-05 11:21 | 42.95917 | 17.52817 | 38103 ft | 484 kts | 78° |
| 2026-05-05 11:21 | 42.97137 | 17.61826 | 38099 ft | 483 kts | 78° |
| 2026-05-05 11:22 | 42.98351 | 17.70854 | 38096 ft | 483 kts | 78° |
| 2026-05-05 11:22 | 42.99560 | 17.79896 | 38090 ft | 483 kts | 78° |
| 2026-05-05 11:23 | 43.00765 | 17.88965 | 38093 ft | 484 kts | 78° |
| 2026-05-05 11:23 | 43.01954 | 17.97974 | 38094 ft | 484 kts | 78° |
| 2026-05-05 11:24 | 43.03143 | 18.07047 | 38094 ft | 484 kts | 78° |
| 2026-05-05 11:24 | 43.04321 | 18.16090 | 38097 ft | 484 kts | 78° |
| 2026-05-05 11:25 | 43.05495 | 18.25161 | 38100 ft | 484 kts | 78° |
| 2026-05-05 11:25 | 43.06657 | 18.34202 | 38097 ft | 484 kts | 78° |
| 2026-05-05 11:26 | 43.07814 | 18.43263 | 38091 ft | 485 kts | 78° |
| 2026-05-05 11:26 | 43.08974 | 18.52392 | 38097 ft | 486 kts | 78° |
| 2026-05-05 11:27 | 43.10119 | 18.61472 | 38090 ft | 486 kts | 78° |
| 2026-05-05 11:27 | 43.11265 | 18.70632 | 38090 ft | 485 kts | 78° |
| 2026-05-05 11:28 | 43.12391 | 18.79691 | 38085 ft | 485 kts | 78° |
| 2026-05-05 11:28 | 43.13517 | 18.88819 | 38087 ft | 485 kts | 78° |
| 2026-05-05 11:29 | 43.14628 | 18.97881 | 38083 ft | 485 kts | 78° |
| 2026-05-05 11:29 | 43.15742 | 19.07037 | 38084 ft | 485 kts | 78° |
| 2026-05-05 11:30 | 43.16841 | 19.16120 | 38073 ft | 484 kts | 78° |
| 2026-05-05 11:30 | 43.17930 | 19.25198 | 38076 ft | 484 kts | 78° |
| 2026-05-05 11:31 | 43.18887 | 19.34363 | 38069 ft | 485 kts | 81° |
| 2026-05-05 11:31 | 43.19563 | 19.43514 | 38062 ft | 484 kts | 83° |
| 2026-05-05 11:32 | 43.20158 | 19.52733 | 38059 ft | 484 kts | 83° |
| 2026-05-05 11:32 | 43.20745 | 19.61889 | 38055 ft | 483 kts | 83° |
| 2026-05-05 11:33 | 43.21342 | 19.71045 | 38063 ft | 483 kts | 83° |
| 2026-05-05 11:33 | 43.21941 | 19.80185 | 38057 ft | 482 kts | 82° |
| 2026-05-05 11:34 | 43.22540 | 19.89377 | 38059 ft | 481 kts | 82° |
| 2026-05-05 11:34 | 43.23125 | 19.98477 | 38060 ft | 480 kts | 82° |
| 2026-05-05 11:35 | 43.23703 | 20.07564 | 38061 ft | 478 kts | 82° |
| 2026-05-05 11:35 | 43.24272 | 20.16648 | 38062 ft | 477 kts | 83° |
| 2026-05-05 11:36 | 43.24828 | 20.25643 | 38060 ft | 476 kts | 83° |
| 2026-05-05 11:36 | 43.25379 | 20.34673 | 38057 ft | 475 kts | 83° |
| 2026-05-05 11:37 | 43.25923 | 20.43736 | 38061 ft | 474 kts | 82° |
| 2026-05-05 11:37 | 43.26459 | 20.52746 | 38062 ft | 474 kts | 83° |
| 2026-05-05 11:38 | 43.26979 | 20.61605 | 38064 ft | 473 kts | 83° |
| 2026-05-05 11:38 | 43.27491 | 20.70468 | 38071 ft | 472 kts | 82° |
| 2026-05-05 11:39 | 43.28002 | 20.79425 | 38062 ft | 471 kts | 82° |
| 2026-05-05 11:39 | 43.28498 | 20.88252 | 38069 ft | 470 kts | 83° |
| 2026-05-05 11:40 | 43.28992 | 20.97163 | 38063 ft | 470 kts | 82° |
| 2026-05-05 11:40 | 43.29471 | 21.05914 | 38065 ft | 469 kts | 82° |
| 2026-05-05 11:41 | 43.29942 | 21.14626 | 38058 ft | 469 kts | 82° |
| 2026-05-05 11:41 | 43.30419 | 21.23578 | 38052 ft | 468 kts | 83° |
| 2026-05-05 11:42 | 43.30023 | 21.32480 | 38058 ft | 474 kts | 101° |
| 2026-05-05 11:42 | 43.28253 | 21.41255 | 38056 ft | 476 kts | 105° |
| 2026-05-05 11:43 | 43.26238 | 21.49896 | 38055 ft | 476 kts | 105° |
| 2026-05-05 11:43 | 43.24243 | 21.58557 | 38054 ft | 476 kts | 105° |
| 2026-05-05 11:44 | 43.22301 | 21.67262 | 38050 ft | 476 kts | 104° |
| 2026-05-05 11:44 | 43.20396 | 21.75930 | 38050 ft | 476 kts | 104° |
| 2026-05-05 11:45 | 43.18495 | 21.84586 | 38054 ft | 476 kts | 104° |
| 2026-05-05 11:45 | 43.16573 | 21.93304 | 38055 ft | 476 kts | 104° |
| 2026-05-05 11:46 | 43.14656 | 22.01956 | 38061 ft | 476 kts | 104° |
| 2026-05-05 11:46 | 43.12723 | 22.10634 | 38059 ft | 476 kts | 104° |
| 2026-05-05 11:47 | 43.10787 | 22.19294 | 38075 ft | 476 kts | 104° |
| 2026-05-05 11:47 | 43.08847 | 22.27929 | 38070 ft | 476 kts | 104° |
| 2026-05-05 11:48 | 43.05923 | 22.40894 | 38078 ft | 476 kts | 104° |
| 2026-05-05 11:48 | 43.03958 | 22.49561 | 38073 ft | 475 kts | 104° |
| 2026-05-05 11:49 | 43.02000 | 22.58167 | 38073 ft | 475 kts | 104° |
| 2026-05-05 11:49 | 43.00036 | 22.66761 | 38073 ft | 475 kts | 104° |
| 2026-05-05 11:50 | 42.98467 | 22.73981 | 38059 ft | 471 kts | 96° |
| 2026-05-05 11:50 | 42.98206 | 22.78353 | 38066 ft | 463 kts | 83° |
| 2026-05-05 11:50 | 42.98678 | 22.82675 | 38063 ft | 455 kts | 69° |
| 2026-05-05 11:51 | 43.01126 | 22.90525 | 38070 ft | 449 kts | 59° |
| 2026-05-05 11:51 | 43.04019 | 22.98079 | 38066 ft | 449 kts | 58° |
| 2026-05-05 11:52 | 43.06940 | 23.05656 | 38067 ft | 449 kts | 58° |
| 2026-05-05 11:52 | 43.09786 | 23.13281 | 38063 ft | 449 kts | 59° |
| 2026-05-05 11:53 | 43.12567 | 23.20903 | 38063 ft | 449 kts | 60° |
| 2026-05-05 11:53 | 43.15347 | 23.28601 | 38060 ft | 449 kts | 60° |
| 2026-05-05 11:54 | 43.18101 | 23.36252 | 38063 ft | 449 kts | 60° |
| 2026-05-05 11:54 | 43.20866 | 23.43945 | 38056 ft | 449 kts | 60° |
| 2026-05-05 11:55 | 43.23616 | 23.51610 | 38056 ft | 449 kts | 60° |
| 2026-05-05 11:55 | 43.26360 | 23.59278 | 38057 ft | 448 kts | 60° |
| 2026-05-05 11:56 | 43.29097 | 23.66947 | 38051 ft | 448 kts | 60° |
| 2026-05-05 11:56 | 43.31840 | 23.74658 | 38051 ft | 448 kts | 60° |
| 2026-05-05 11:57 | 43.34564 | 23.82340 | 38049 ft | 448 kts | 60° |
| 2026-05-05 11:57 | 43.37292 | 23.90049 | 38044 ft | 448 kts | 60° |
| 2026-05-05 11:58 | 43.38655 | 23.93910 | 37912 ft | 448 kts | 60° |
| 2026-05-05 11:58 | 43.39999 | 23.97723 | 37635 ft | 447 kts | 60° |
| 2026-05-05 11:58 | 43.41362 | 24.01591 | 37354 ft | 447 kts | 60° |
| 2026-05-05 11:58 | 43.42721 | 24.05451 | 37097 ft | 447 kts | 60° |
| 2026-05-05 11:59 | 43.44050 | 24.09230 | 36847 ft | 446 kts | 60° |
| 2026-05-05 11:59 | 43.45417 | 24.13123 | 36579 ft | 446 kts | 60° |
| 2026-05-05 11:59 | 43.46762 | 24.16957 | 36322 ft | 445 kts | 60° |
| 2026-05-05 11:59 | 43.48114 | 24.20814 | 36066 ft | 445 kts | 60° |
| 2026-05-05 12:00 | 43.49445 | 24.24619 | 35819 ft | 445 kts | 60° |
| 2026-05-05 12:00 | 43.50796 | 24.28485 | 35567 ft | 444 kts | 60° |
| 2026-05-05 12:00 | 43.52136 | 24.32324 | 35320 ft | 444 kts | 60° |
| 2026-05-05 12:00 | 43.53461 | 24.36129 | 35076 ft | 444 kts | 60° |
| 2026-05-05 12:01 | 43.54803 | 24.39984 | 34832 ft | 443 kts | 60° |
| 2026-05-05 12:01 | 43.56120 | 24.43776 | 34592 ft | 443 kts | 60° |
| 2026-05-05 12:01 | 43.57452 | 24.47617 | 34354 ft | 442 kts | 60° |
| 2026-05-05 12:01 | 43.58784 | 24.51462 | 34112 ft | 442 kts | 60° |
| 2026-05-05 12:02 | 43.60097 | 24.55258 | 33856 ft | 442 kts | 60° |
| 2026-05-05 12:02 | 43.61428 | 24.59109 | 33587 ft | 442 kts | 60° |
| 2026-05-05 12:02 | 43.62756 | 24.62952 | 33318 ft | 443 kts | 60° |
| 2026-05-05 12:02 | 43.64066 | 24.66750 | 33052 ft | 443 kts | 60° |
| 2026-05-05 12:03 | 43.65396 | 24.70607 | 32788 ft | 444 kts | 61° |
| 2026-05-05 12:03 | 43.66733 | 24.74493 | 32519 ft | 445 kts | 61° |
| 2026-05-05 12:03 | 43.68050 | 24.78326 | 32258 ft | 445 kts | 61° |
| 2026-05-05 12:03 | 43.69384 | 24.82209 | 31990 ft | 445 kts | 60° |
| 2026-05-05 12:04 | 43.70949 | 24.85841 | 31747 ft | 441 kts | 52° |
| 2026-05-05 12:04 | 43.72780 | 24.89287 | 31503 ft | 441 kts | 50° |